Time;durP1;ratioP1;P1;durP2;ratioP2;P2;SDS_P1;SDS_P2;PMS_P1;PMS_P2;Temp;Humidity;BMP_temperature;BMP_pressure;BME280_temperature;BME280_humidity;BME280_pressure;Samples;Min_cycle;Max_cycle;Signal;HPM_P1;HPM_P2
2023/05/12 00:01:02;;;;;;;9.50;2.33;;;13.30;99.90;;;;;;5112364;28;20480;-74
2023/05/12 00:03:28;;;;;;;6.55;2.33;;;13.30;99.90;;;;;;5112157;28;20028;-74
2023/05/12 00:05:53;;;;;;;5.47;1.98;;;13.20;99.90;;;;;;5112023;28;20035;-74
2023/05/12 00:08:19;;;;;;;7.05;2.35;;;13.10;99.90;;;;;;5112357;28;20051;-74
2023/05/12 00:10:45;;;;;;;9.13;2.97;;;13.10;99.90;;;;;;5112072;28;20031;-75
2023/05/12 00:13:10;;;;;;;7.60;2.40;;;13.00;99.90;;;;;;5111617;28;20058;-74
2023/05/12 00:15:36;;;;;;;8.10;2.25;;;12.90;99.90;;;;;;5112068;28;20044;-74
2023/05/12 00:18:02;;;;;;;7.90;2.20;;;12.90;99.90;;;;;;5112067;28;20095;-73
2023/05/12 00:20:28;;;;;;;7.22;2.20;;;12.80;99.90;;;;;;5112052;28;20105;-73
2023/05/12 00:22:54;;;;;;;6.57;2.20;;;12.80;99.90;;;;;;5112397;28;20027;-74
2023/05/12 00:25:19;;;;;;;7.78;2.13;;;12.80;99.90;;;;;;5111806;28;20112;-74
2023/05/12 00:27:45;;;;;;;9.45;2.78;;;12.70;99.90;;;;;;5111388;28;20369;-73
2023/05/12 00:30:11;;;;;;;7.20;2.33;;;12.70;99.90;;;;;;5111875;28;20393;-74
2023/05/12 00:32:36;;;;;;;4.93;2.08;;;12.60;99.90;;;;;;5112138;28;20061;-74
2023/05/12 00:35:02;;;;;;;5.03;2.17;;;12.60;99.90;;;;;;5111864;28;20038;-74
2023/05/12 00:37:28;;;;;;;6.53;2.25;;;12.60;99.90;;;;;;5111761;28;20030;-74
2023/05/12 00:39:54;;;;;;;7.60;2.40;;;12.50;99.90;;;;;;5111664;28;20036;-74
2023/05/12 00:42:19;;;;;;;7.55;2.10;;;12.40;99.90;;;;;;5111324;28;20062;-75
2023/05/12 00:44:46;;;;;;;5.55;2.10;;;12.30;99.90;;;;;;5111824;28;20026;-75
2023/05/12 00:47:13;;;;;;;9.13;2.30;;;12.30;99.90;;;;;;5111819;28;20039;-75
2023/05/12 00:49:41;;;;;;;5.95;2.28;;;12.30;99.90;;;;;;5111642;28;20028;-75
2023/05/12 00:52:07;;;;;;;7.88;2.42;;;12.40;99.90;;;;;;5111539;28;20027;-76
2023/05/12 00:54:34;;;;;;;9.13;2.40;;;12.40;99.90;;;;;;5111615;28;20034;-76
2023/05/12 00:57:01;;;;;;;8.60;2.78;;;12.50;99.90;;;;;;5111466;28;20047;-76
2023/05/12 00:59:28;;;;;;;9.07;2.90;;;12.50;99.90;;;;;;5111598;28;20024;-76
2023/05/12 01:01:54;;;;;;;8.82;2.50;;;12.60;99.90;;;;;;5115658;28;20031;-77
2023/05/12 01:04:20;;;;;;;6.93;2.38;;;12.60;99.90;;;;;;5116069;28;20087;-77
2023/05/12 01:06:49;;;;;;;5.85;2.13;;;12.60;99.90;;;;;;5115538;28;20031;-75
2023/05/12 01:09:16;;;;;;;6.97;2.75;;;12.60;99.90;;;;;;5115427;28;20032;-76
2023/05/12 01:11:41;;;;;;;9.38;2.78;;;12.70;99.90;;;;;;5115018;28;20088;-75
2023/05/12 01:14:07;;;;;;;7.38;2.30;;;12.70;99.90;;;;;;5116228;28;20024;-76
2023/05/12 01:16:39;;;;;;;8.73;2.70;;;12.70;99.90;;;;;;5115569;28;20554;-76
2023/05/12 01:19:09;;;;;;;6.35;2.20;;;12.70;99.90;;;;;;5115468;28;20020;-75
2023/05/12 01:21:35;;;;;;;7.88;2.70;;;12.70;99.90;;;;;;5115465;28;20445;-75
2023/05/12 01:24:06;;;;;;;7.88;2.40;;;12.60;99.90;;;;;;5115243;28;20020;-75
2023/05/12 01:26:32;;;;;;;8.45;2.47;;;12.60;99.90;;;;;;5114726;28;20055;-75
2023/05/12 01:29:00;;;;;;;7.60;2.40;;;12.50;99.90;;;;;;5115458;28;20027;-75
2023/05/12 01:31:27;;;;;;;7.93;2.53;;;12.40;99.90;;;;;;5115184;28;20032;-76
2023/05/12 01:33:53;;;;;;;6.97;2.50;;;12.30;99.90;;;;;;5115110;28;20114;-75
2023/05/12 01:36:18;;;;;;;7.45;2.28;;;12.40;99.90;;;;;;5115101;28;20098;-75
2023/05/12 01:38:44;;;;;;;7.40;1.90;;;12.40;99.90;;;;;;5115383;28;20031;-75
2023/05/12 01:41:10;;;;;;;5.78;2.08;;;12.40;99.90;;;;;;5114662;28;20035;-75
2023/05/12 01:43:35;;;;;;;6.38;2.33;;;12.40;99.90;;;;;;5114970;28;20099;-75
2023/05/12 01:46:01;;;;;;;8.60;2.55;;;12.40;99.90;;;;;;5115033;28;20174;-75
2023/05/12 01:48:27;;;;;;;7.00;2.47;;;12.40;99.90;;;;;;5114911;28;20050;-75
2023/05/12 01:50:52;;;;;;;5.05;2.35;;;12.40;99.90;;;;;;5114956;28;20058;-75
2023/05/12 01:53:18;;;;;;;5.68;2.40;;;12.40;99.90;;;;;;5115204;28;20461;-75
2023/05/12 01:55:43;;;;;;;5.40;1.95;;;12.30;99.90;;;;;;5114394;28;20504;-75
2023/05/12 01:58:09;;;;;;;7.53;2.58;;;12.40;99.90;;;;;;5114698;28;20023;-75
2023/05/12 02:00:35;;;;;;;4.80;2.28;;;12.30;99.90;;;;;;5114806;28;20107;-74
2023/05/12 02:03:01;;;;;;;6.65;2.20;;;12.30;99.90;;;;;;5115028;28;20040;-74
2023/05/12 02:05:27;;;;;;;6.70;2.22;;;12.30;99.90;;;;;;5114633;28;20031;-75
2023/05/12 02:07:52;;;;;;;5.82;2.20;;;12.30;99.90;;;;;;5114391;28;20032;-75
2023/05/12 02:10:18;;;;;;;4.97;2.10;;;12.30;99.90;;;;;;5113534;28;20080;-74
2023/05/12 02:12:43;;;;;;;5.43;2.00;;;12.20;99.90;;;;;;5114512;28;20061;-74
2023/05/12 02:15:09;;;;;;;4.10;1.92;;;12.20;99.90;;;;;;5114315;28;20058;-75
2023/05/12 02:17:35;;;;;;;7.20;2.10;;;12.30;99.90;;;;;;5114397;28;20022;-74
2023/05/12 02:20:01;;;;;;;5.90;2.20;;;12.30;99.90;;;;;;5114198;28;20476;-75
2023/05/12 02:22:26;;;;;;;4.88;1.98;;;12.30;99.90;;;;;;5114546;28;20416;-75
2023/05/12 02:24:52;;;;;;;5.35;2.00;;;12.30;99.90;;;;;;5113971;28;20031;-75
2023/05/12 02:27:18;;;;;;;6.13;2.20;;;12.20;99.90;;;;;;5095785;28;20039;-74
2023/05/12 02:29:44;;;;;;;4.53;1.85;;;12.20;99.90;;;;;;5095909;28;20026;-74
2023/05/12 02:32:10;;;;;;;5.47;2.20;;;12.20;99.90;;;;;;5114005;28;20047;-75
2023/05/12 02:34:35;;;;;;;5.05;2.38;;;12.20;99.90;;;;;;5114062;28;20031;-74
2023/05/12 02:37:01;;;;;;;4.65;1.77;;;12.20;99.90;;;;;;5113932;28;20059;-74
2023/05/12 02:39:27;;;;;;;3.85;2.08;;;12.10;99.90;;;;;;5113690;28;20039;-74
2023/05/12 02:41:53;;;;;;;5.18;2.10;;;12.10;99.90;;;;;;5113921;28;20032;-74
2023/05/12 02:44:21;;;;;;;5.28;2.10;;;12.10;99.90;;;;;;5113831;28;20046;-74
2023/05/12 02:46:46;;;;;;;4.43;2.13;;;12.10;99.90;;;;;;5113461;28;20039;-73
2023/05/12 02:49:12;;;;;;;3.42;1.80;;;12.10;99.90;;;;;;5114092;28;20030;-74
2023/05/12 02:51:38;;;;;;;5.57;2.03;;;12.00;99.90;;;;;;5113789;28;20027;-75
2023/05/12 02:54:04;;;;;;;5.57;2.20;;;12.00;99.90;;;;;;5113389;28;20028;-73
2023/05/12 02:56:30;;;;;;;4.45;2.00;;;12.00;99.90;;;;;;5113834;28;20030;-74
2023/05/12 02:58:55;;;;;;;4.47;2.10;;;12.00;99.90;;;;;;5113553;28;20102;-74
2023/05/12 03:01:21;;;;;;;5.00;2.00;;;11.90;99.90;;;;;;5113721;28;20540;-74
2023/05/12 03:03:46;;;;;;;5.82;2.00;;;11.80;99.90;;;;;;5113476;28;20500;-74
2023/05/12 03:06:12;;;;;;;3.35;1.90;;;11.80;99.90;;;;;;5113146;28;20039;-74
2023/05/12 03:08:38;;;;;;;4.88;2.33;;;11.80;99.90;;;;;;5112915;28;20019;-74
2023/05/12 03:11:04;;;;;;;6.65;1.95;;;11.70;99.90;;;;;;5113241;28;20042;-74
2023/05/12 03:13:30;;;;;;;4.00;1.90;;;11.70;99.90;;;;;;5113445;28;20078;-74
2023/05/12 03:15:59;;;;;;;4.82;2.10;;;11.70;99.90;;;;;;5094883;28;20058;-74
2023/05/12 03:18:26;;;;;;;3.42;2.00;;;11.60;99.90;;;;;;5113031;28;20032;-75
2023/05/12 03:20:52;;;;;;;3.70;2.10;;;11.70;99.90;;;;;;5113324;28;20159;-74
2023/05/12 03:23:17;;;;;;;4.72;2.10;;;11.60;99.90;;;;;;5112284;28;20047;-74
2023/05/12 03:25:43;;;;;;;3.65;1.90;;;11.60;99.90;;;;;;5112715;28;20492;-74
2023/05/12 03:28:09;;;;;;;3.67;2.20;;;11.50;99.90;;;;;;5113053;28;20108;-75
2023/05/12 03:30:35;;;;;;;4.88;2.20;;;11.40;99.90;;;;;;5113297;28;20030;-74
2023/05/12 03:33:00;;;;;;;5.55;2.30;;;11.40;99.90;;;;;;5112946;28;20396;-74
2023/05/12 03:35:26;;;;;;;4.03;2.13;;;11.40;99.90;;;;;;5112889;28;20496;-74
2023/05/12 03:37:52;;;;;;;3.92;2.13;;;11.40;99.90;;;;;;5112355;28;20484;-74
2023/05/12 03:40:17;;;;;;;3.85;2.33;;;11.30;99.90;;;;;;5113067;28;20073;-74
2023/05/12 03:42:44;;;;;;;3.80;2.20;;;11.30;99.90;;;;;;5112700;28;20027;-73
2023/05/12 03:45:11;;;;;;;3.65;2.20;;;11.30;99.90;;;;;;5112540;28;20043;-74
2023/05/12 03:47:39;;;;;;;4.07;2.30;;;11.30;99.90;;;;;;5112431;28;20519;-73
2023/05/12 03:50:05;;;;;;;4.13;2.30;;;11.30;99.90;;;;;;5112754;28;20396;-74
2023/05/12 03:52:31;;;;;;;4.43;2.40;;;11.20;99.90;;;;;;5112144;28;20024;-74
2023/05/12 03:54:56;;;;;;;4.85;2.50;;;11.20;99.90;;;;;;5112470;28;20073;-74
2023/05/12 03:57:22;;;;;;;6.22;2.60;;;11.10;99.90;;;;;;5112479;28;20023;-74
2023/05/12 03:59:48;;;;;;;4.15;2.38;;;11.10;99.90;;;;;;5112401;28;20024;-74
2023/05/12 04:02:13;;;;;;;3.75;2.38;;;11.10;99.90;;;;;;5112696;28;20059;-74
2023/05/12 04:04:39;;;;;;;5.28;2.60;;;11.00;99.90;;;;;;5112308;28;20023;-74
2023/05/12 04:07:05;;;;;;;3.55;2.10;;;11.00;99.90;;;;;;5111820;28;20453;-74
2023/05/12 04:09:32;;;;;;;4.65;2.38;;;11.00;99.90;;;;;;5112123;28;20028;-74
2023/05/12 04:11:57;;;;;;;5.20;2.38;;;10.90;99.90;;;;;;5112135;28;20103;-73
2023/05/12 04:14:23;;;;;;;3.55;2.47;;;10.90;99.90;;;;;;5112127;28;20051;-74
2023/05/12 04:16:49;;;;;;;4.50;2.28;;;10.80;99.90;;;;;;5112011;28;20083;-74
2023/05/12 04:19:15;;;;;;;5.18;2.58;;;10.80;99.90;;;;;;5112446;28;20107;-74
2023/05/12 04:21:40;;;;;;;4.78;2.63;;;10.80;99.90;;;;;;5111467;28;20027;-74
2023/05/12 04:24:06;;;;;;;2.95;2.28;;;10.70;99.90;;;;;;5112090;28;20392;-74
2023/05/12 04:26:32;;;;;;;4.47;2.20;;;10.80;99.90;;;;;;5111899;28;20096;-74
2023/05/12 04:28:57;;;;;;;8.68;2.95;;;10.70;99.90;;;;;;5112335;28;20043;-73
2023/05/12 04:31:23;;;;;;;3.83;2.25;;;10.70;99.90;;;;;;5111803;28;20051;-74
2023/05/12 04:33:50;;;;;;;3.92;2.40;;;10.70;99.90;;;;;;5111506;28;20047;-74
2023/05/12 04:36:16;;;;;;;4.93;2.65;;;10.60;99.90;;;;;;5111131;28;20023;-73
2023/05/12 04:38:42;;;;;;;4.38;2.50;;;10.50;99.90;;;;;;5111726;28;20457;-74
2023/05/12 04:41:08;;;;;;;3.53;2.72;;;10.50;99.90;;;;;;5112046;28;20055;-73
2023/05/12 04:43:33;;;;;;;4.75;2.55;;;10.50;99.90;;;;;;5111708;28;20023;-74
2023/05/12 04:46:00;;;;;;;3.35;2.35;;;10.50;99.90;;;;;;5111625;28;20115;-74
2023/05/12 04:48:26;;;;;;;4.03;2.53;;;10.50;99.90;;;;;;5111427;28;20107;-73
2023/05/12 04:50:52;;;;;;;5.97;2.83;;;10.50;99.90;;;;;;5111617;28;20040;-74
2023/05/12 04:53:17;;;;;;;3.90;2.42;;;10.50;99.90;;;;;;5112093;28;20019;-76
2023/05/12 04:55:44;;;;;;;4.43;2.60;;;10.50;99.90;;;;;;5111561;28;20020;-73
2023/05/12 04:58:12;;;;;;;2.63;2.10;;;10.50;99.90;;;;;;5111703;28;20453;-73
2023/05/12 05:00:38;;;;;;;5.00;2.60;;;10.60;99.90;;;;;;5111622;28;20752;-74
2023/05/12 05:03:04;;;;;;;2.97;2.42;;;10.50;99.90;;;;;;5111270;28;20038;-74
2023/05/12 05:05:30;;;;;;;4.78;2.35;;;10.50;99.90;;;;;;5111410;28;20084;-74
2023/05/12 05:07:56;;;;;;;4.32;2.42;;;10.40;99.90;;;;;;5111486;28;20035;-74
2023/05/12 05:10:22;;;;;;;4.72;2.33;;;10.40;99.90;;;;;;5111324;28;20039;-74
2023/05/12 05:12:48;;;;;;;4.55;2.50;;;10.40;99.90;;;;;;5111620;28;20397;-73
2023/05/12 05:15:13;;;;;;;4.38;2.45;;;10.30;99.90;;;;;;5111270;28;20031;-73
2023/05/12 05:17:41;;;;;;;6.47;2.53;;;10.40;99.90;;;;;;5110959;28;20396;-74
2023/05/12 05:20:08;;;;;;;6.07;2.58;;;10.40;99.90;;;;;;5111282;28;20036;-74
2023/05/12 05:22:34;;;;;;;5.22;2.70;;;10.50;99.90;;;;;;5111292;28;20020;-74
2023/05/12 05:25:00;;;;;;;4.95;2.85;;;10.50;99.90;;;;;;5111611;28;20043;-73
2023/05/12 05:27:26;;;;;;;4.25;2.80;;;10.50;99.90;;;;;;5111274;28;20028;-74
2023/05/12 05:29:51;;;;;;;7.47;3.10;;;10.50;99.90;;;;;;5111194;28;20038;-73
2023/05/12 05:32:17;;;;;;;4.13;2.60;;;10.60;99.90;;;;;;5111282;28;20062;-73
2023/05/12 05:34:43;;;;;;;5.35;3.00;;;10.60;99.90;;;;;;5111412;28;20040;-73
2023/05/12 05:37:08;;;;;;;7.47;3.22;;;10.60;99.90;;;;;;5110960;28;20047;-74
2023/05/12 05:39:34;;;;;;;9.43;3.47;;;10.70;99.90;;;;;;5111270;28;20471;-74
2023/05/12 05:42:00;;;;;;;4.32;2.70;;;10.60;99.90;;;;;;5111589;28;20038;-74
2023/05/12 05:44:25;;;;;;;4.57;3.30;;;10.70;99.90;;;;;;5092864;28;20020;-74
2023/05/12 05:46:51;;;;;;;5.28;3.22;;;10.70;99.90;;;;;;5112886;28;20043;-74
2023/05/12 05:49:17;;;;;;;5.05;3.10;;;10.80;99.90;;;;;;5114930;28;20030;-73
2023/05/12 05:51:43;;;;;;;6.32;3.10;;;10.80;99.90;;;;;;5115018;28;20424;-72
2023/05/12 05:54:08;;;;;;;6.00;3.00;;;10.90;99.90;;;;;;5114836;28;20023;-73
2023/05/12 05:56:34;;;;;;;4.05;2.63;;;10.90;99.90;;;;;;5114740;28;20110;-73
2023/05/12 05:59:03;;;;;;;5.57;2.90;;;11.00;99.90;;;;;;5115069;28;20552;-73
2023/05/12 06:01:29;;;;;;;6.00;3.25;;;11.00;99.90;;;;;;5096087;28;20439;-74
2023/05/12 06:03:55;;;;;;;7.18;3.30;;;11.10;99.90;;;;;;5114752;28;20019;-73
2023/05/12 06:06:20;;;;;;;5.63;3.47;;;11.10;99.90;;;;;;5114403;28;20103;-73
2023/05/12 06:08:46;;;;;;;6.20;3.45;;;11.10;99.90;;;;;;5114791;28;20039;-73
2023/05/12 06:11:12;;;;;;;5.88;3.20;;;11.20;99.90;;;;;;5114536;28;20039;-74
2023/05/12 06:13:37;;;;;;;5.97;3.40;;;11.30;99.90;;;;;;5113874;28;20052;-73
2023/05/12 06:16:04;;;;;;;6.20;3.10;;;11.30;99.90;;;;;;5113956;28;20023;-73
2023/05/12 06:18:32;;;;;;;6.72;3.22;;;11.40;99.90;;;;;;5114024;28;20405;-73
2023/05/12 06:20:58;;;;;;;8.23;3.75;;;11.40;99.90;;;;;;5114163;28;20099;-73
2023/05/12 06:23:24;;;;;;;6.55;3.60;;;11.50;99.90;;;;;;5113971;28;20099;-72
2023/05/12 06:25:50;;;;;;;6.93;3.40;;;11.50;99.90;;;;;;5114170;28;20043;-74
2023/05/12 06:28:15;;;;;;;6.72;3.40;;;11.60;99.90;;;;;;5113912;28;20030;-73
2023/05/12 06:30:41;;;;;;;7.22;3.55;;;11.70;99.90;;;;;;5114022;28;20118;-75
2023/05/12 06:33:07;;;;;;;9.13;3.80;;;11.70;99.90;;;;;;5114420;28;20023;-75
2023/05/12 06:35:32;;;;;;;8.70;3.53;;;11.80;99.90;;;;;;5114109;28;20032;-75
2023/05/12 06:37:58;;;;;;;7.55;3.58;;;11.90;99.90;;;;;;5114071;28;20016;-73
2023/05/12 06:40:24;;;;;;;6.93;3.55;;;12.00;99.90;;;;;;5113942;28;20028;-74
2023/05/12 06:42:49;;;;;;;7.75;3.45;;;12.10;99.90;;;;;;5114150;28;20077;-74
2023/05/12 06:45:15;;;;;;;8.63;3.60;;;12.20;99.90;;;;;;5113473;28;20468;-73
2023/05/12 06:47:41;;;;;;;7.55;3.42;;;12.20;99.90;;;;;;5113738;28;20088;-76
2023/05/12 06:50:07;;;;;;;7.57;2.90;;;12.30;99.90;;;;;;5114144;28;20035;-76
2023/05/12 06:52:33;;;;;;;9.88;3.83;;;12.40;99.90;;;;;;5113878;28;20035;-76
2023/05/12 06:54:59;;;;;;;8.07;3.00;;;12.50;99.90;;;;;;5113555;28;20024;-75
2023/05/12 06:57:25;;;;;;;8.30;3.47;;;12.50;99.90;;;;;;5112712;28;20028;-75
2023/05/12 06:59:51;;;;;;;6.13;2.90;;;12.60;99.90;;;;;;5113098;28;20111;-76
2023/05/12 07:02:16;;;;;;;8.40;2.97;;;12.60;99.90;;;;;;5113797;28;20032;-75
2023/05/12 07:04:42;;;;;;;9.13;3.03;;;12.70;99.90;;;;;;5113501;28;20023;-73
2023/05/12 07:07:08;;;;;;;7.10;3.10;;;12.70;99.90;;;;;;5095012;28;20084;-73
2023/05/12 07:09:34;;;;;;;11.57;2.67;;;12.80;99.90;;;;;;5113024;28;20110;-70
2023/05/12 07:11:59;;;;;;;8.57;2.47;;;12.90;99.90;;;;;;5113200;28;20034;-70
2023/05/12 07:14:25;;;;;;;6.63;2.28;;;12.90;99.90;;;;;;5112875;28;20050;-70
2023/05/12 07:16:51;;;;;;;7.93;2.80;;;13.00;99.90;;;;;;5113300;28;20396;-70
2023/05/12 07:19:16;;;;;;;12.25;2.28;;;13.10;99.90;;;;;;5113162;28;20032;-70
2023/05/12 07:21:43;;;;;;;9.35;2.40;;;13.10;99.90;;;;;;5113377;28;20049;-70
2023/05/12 07:24:09;;;;;;;7.43;2.10;;;13.10;99.90;;;;;;5113130;28;20031;-70
2023/05/12 07:26:34;;;;;;;8.77;2.40;;;13.20;99.90;;;;;;5112923;28;20404;-71
2023/05/12 07:29:01;;;;;;;9.35;2.20;;;13.30;99.90;;;;;;5112657;28;20020;-70
2023/05/12 07:31:27;;;;;;;9.50;2.42;;;13.30;99.90;;;;;;5113282;28;20557;-70
2023/05/12 07:33:53;;;;;;;11.00;2.33;;;13.40;99.90;;;;;;5112940;28;20065;-70
2023/05/12 07:36:19;;;;;;;8.32;2.20;;;13.40;99.90;;;;;;5112743;28;20080;-70
2023/05/12 07:38:45;;;;;;;12.43;2.50;;;13.50;99.90;;;;;;5113027;28;20434;-71
2023/05/12 07:41:10;;;;;;;12.15;2.92;;;13.60;99.90;;;;;;5112891;28;20020;-71
2023/05/12 07:43:36;;;;;;;8.80;2.45;;;13.60;99.90;;;;;;5112339;28;20048;-71
2023/05/12 07:46:02;;;;;;;11.07;2.45;;;13.70;99.90;;;;;;5112543;28;20066;-71
2023/05/12 07:48:28;;;;;;;11.25;2.90;;;13.70;99.90;;;;;;5112980;28;20116;-70
2023/05/12 07:50:54;;;;;;;7.78;2.50;;;13.70;99.90;;;;;;5112734;28;20487;-70
2023/05/12 07:53:20;;;;;;;12.65;3.40;;;13.70;99.90;;;;;;5112680;28;20058;-70
2023/05/12 07:55:46;;;;;;;9.60;2.63;;;13.80;99.90;;;;;;5112363;28;20023;-70
2023/05/12 07:58:12;;;;;;;11.40;2.55;;;13.90;99.90;;;;;;5111977;28;20036;-70
2023/05/12 08:00:38;;;;;;;10.63;2.92;;;13.90;99.90;;;;;;5112473;28;20027;-70
2023/05/12 08:03:05;;;;;;;8.48;2.53;;;14.00;99.90;;;;;;5112235;28;20023;-69
2023/05/12 08:05:31;;;;;;;9.32;2.53;;;14.10;99.90;;;;;;5112486;28;20023;-70
2023/05/12 08:07:57;;;;;;;6.75;2.30;;;14.10;99.90;;;;;;5112439;28;20038;-69
2023/05/12 08:10:25;;;;;;;6.78;2.08;;;14.20;99.90;;;;;;5111843;28;20492;-70
2023/05/12 08:12:51;;;;;;;9.90;2.70;;;14.20;99.90;;;;;;5111633;28;20055;-70
2023/05/12 08:15:17;;;;;;;11.00;2.72;;;14.20;99.90;;;;;;5112283;28;20038;-70
2023/05/12 08:17:42;;;;;;;10.10;2.70;;;14.30;99.90;;;;;;5112102;28;20053;-70
2023/05/12 08:20:09;;;;;;;8.40;2.70;;;14.40;99.90;;;;;;5112426;28;20057;-70
2023/05/12 08:22:35;;;;;;;9.65;2.38;;;14.30;99.90;;;;;;5111953;28;20362;-69
2023/05/12 08:25:01;;;;;;;8.23;2.17;;;14.30;99.90;;;;;;5111847;28;20064;-70
2023/05/12 08:27:28;;;;;;;7.15;2.45;;;14.40;99.90;;;;;;5111558;28;20043;-69
2023/05/12 08:29:54;;;;;;;10.10;2.70;;;14.50;99.90;;;;;;5112117;28;20391;-70
2023/05/12 08:32:20;;;;;;;7.80;2.10;;;14.60;99.90;;;;;;5111946;28;20080;-70
2023/05/12 08:34:45;;;;;;;7.05;2.10;;;14.70;99.90;;;;;;5111961;28;20032;-70
2023/05/12 08:37:11;;;;;;;8.80;2.28;;;14.60;99.90;;;;;;5112020;28;20032;-68
2023/05/12 08:39:37;;;;;;;9.68;2.10;;;14.60;99.90;;;;;;5111472;28;20106;-70
2023/05/12 08:42:16;;;;;;;10.02;2.40;;;14.60;99.90;;;;;;5111855;28;20388;-70
2023/05/12 08:44:42;;;;;;;7.03;2.42;;;14.70;99.90;;;;;;5112033;28;20098;-70
2023/05/12 08:47:10;;;;;;;6.35;2.58;;;14.70;99.90;;;;;;5111545;28;20047;-70
2023/05/12 08:49:38;;;;;;;10.13;2.65;;;14.80;99.90;;;;;;5111816;28;20373;-71
2023/05/12 08:52:06;;;;;;;7.53;2.33;;;14.80;99.90;;;;;;5112092;28;20034;-69
2023/05/12 08:54:32;;;;;;;10.02;2.45;;;14.90;99.90;;;;;;5111484;28;20059;-70
2023/05/12 08:56:59;;;;;;;9.82;2.33;;;15.00;99.90;;;;;;5111088;28;20054;-70
2023/05/12 08:59:25;;;;;;;8.57;2.75;;;15.00;99.90;;;;;;5093390;28;20015;-70
2023/05/12 09:01:53;;;;;;;8.02;2.63;;;15.00;99.90;;;;;;5111511;28;20080;-70
2023/05/12 09:04:19;;;;;;;9.15;2.78;;;15.00;99.90;;;;;;5111503;28;20024;-70
2023/05/12 09:06:45;;;;;;;8.43;2.20;;;15.00;99.90;;;;;;5111428;28;20106;-70
2023/05/12 09:09:16;;;;;;;5.53;2.13;;;15.10;99.90;;;;;;5111634;28;20108;-71
2023/05/12 09:11:42;;;;;;;10.32;2.40;;;15.10;99.90;;;;;;5111104;28;20067;-70
2023/05/12 09:14:16;;;;;;;10.05;2.78;;;15.10;99.90;;;;;;5111217;28;20131;-70
2023/05/12 09:16:47;;;;;;;8.73;2.70;;;15.30;99.90;;;;;;5111443;28;20488;-69
2023/05/12 09:19:20;;;;;;;10.77;4.97;;;15.40;99.90;;;;;;5111518;28;20028;-70
2023/05/12 09:21:47;;;;;;;231.35;136.27;;;15.30;99.90;;;;;;5113432;28;20023;-69
2023/05/12 09:24:12;;;;;;;125.50;66.65;;;15.30;99.90;;;;;;5115063;28;20031;-71
2023/05/12 09:26:48;;;;;;;665.75;415.48;;;15.30;99.90;;;;;;5115748;28;20385;-69
2023/05/12 09:29:15;;;;;;;390.65;282.60;;;15.30;99.90;;;;;;5115607;28;20566;-70
2023/05/12 09:31:49;;;;;;;87.00;72.45;;;15.40;99.90;;;;;;5115260;28;20081;-70
2023/05/12 09:34:15;;;;;;;80.05;62.10;;;15.40;99.90;;;;;;5115181;28;20484;-70
2023/05/12 09:36:41;;;;;;;49.47;41.90;;;15.40;99.90;;;;;;5115126;28;20034;-69
2023/05/12 09:39:08;;;;;;;72.20;62.80;;;15.50;99.90;;;;;;5114614;28;20421;-70
2023/05/12 09:41:38;;;;;;;87.10;77.00;;;15.60;99.90;;;;;;5115384;28;20092;-70
2023/05/12 09:44:05;;;;;;;66.00;59.05;;;15.70;99.90;;;;;;5115084;28;20023;-70
2023/05/12 09:46:31;;;;;;;18.80;12.20;;;15.70;99.90;;;;;;5114794;28;20500;-70
2023/05/12 09:48:57;;;;;;;11.88;5.07;;;15.70;99.90;;;;;;5115003;28;20156;-70
2023/05/12 09:51:24;;;;;;;15.45;4.32;;;15.70;99.90;;;;;;5114901;28;20019;-70
2023/05/12 09:53:50;;;;;;;12.90;3.67;;;15.70;99.90;;;;;;5114955;28;20099;-70
2023/05/12 09:56:17;;;;;;;15.38;3.92;;;15.70;99.90;;;;;;5114469;28;20441;-71
2023/05/12 09:58:46;;;;;;;10.98;3.55;;;15.70;99.90;;;;;;5114744;28;20398;-70
2023/05/12 10:01:18;;;;;;;12.43;3.47;;;15.80;99.90;;;;;;5114654;28;20029;-70
2023/05/12 10:03:50;;;;;;;12.25;2.78;;;15.90;99.90;;;;;;5114688;28;20052;-70
2023/05/12 10:06:24;;;;;;;7.72;2.72;;;15.90;99.90;;;;;;5114323;28;20044;-70
2023/05/12 10:08:55;;;;;;;8.32;2.90;;;15.80;99.90;;;;;;5114380;28;20028;-70
2023/05/12 10:11:21;;;;;;;8.18;2.45;;;15.80;99.90;;;;;;5114610;28;20076;-70
2023/05/12 10:13:47;;;;;;;11.80;2.97;;;15.80;99.90;;;;;;5114275;28;20048;-70
2023/05/12 10:16:14;;;;;;;10.13;2.90;;;16.00;99.90;;;;;;5114366;28;20024;-71
2023/05/12 10:18:43;;;;;;;13.05;3.20;;;16.10;99.90;;;;;;5113978;28;20028;-71
2023/05/12 10:21:10;;;;;;;11.00;2.70;;;16.20;99.90;;;;;;5114385;28;20027;-70
2023/05/12 10:23:40;;;;;;;10.07;2.33;;;16.10;99.90;;;;;;5113424;28;20051;-70
2023/05/12 10:26:06;;;;;;;5.43;1.90;;;16.10;99.90;;;;;;5113289;28;20058;-70
2023/05/12 10:28:31;;;;;;;6.10;1.83;;;16.10;99.90;;;;;;5114155;28;20031;-70
2023/05/12 10:30:58;;;;;;;8.18;2.00;;;16.20;99.90;;;;;;5113683;28;20027;-71
2023/05/12 10:33:25;;;;;;;7.50;2.20;;;16.10;99.90;;;;;;5114278;28;20019;-70
2023/05/12 10:35:51;;;;;;;5.97;1.85;;;16.10;99.90;;;;;;5113840;28;20060;-70
2023/05/12 10:38:20;;;;;;;6.25;1.70;;;16.10;99.90;;;;;;5113492;28;20023;-70
2023/05/12 10:41:01;;;;;;;6.53;1.90;;;16.20;99.90;;;;;;5113297;28;20058;-71
2023/05/12 10:43:38;;;;;;;7.47;2.30;;;16.20;99.90;;;;;;5113580;28;20534;-71
2023/05/12 10:46:17;;;;;;;7.03;1.85;;;16.30;99.90;;;;;;5113729;28;20035;-71
2023/05/12 10:49:03;;;;;;;9.45;2.33;;;16.40;99.90;;;;;;5113882;28;20093;-71
2023/05/12 10:51:48;;;;;;;11.63;2.45;;;16.40;99.90;;;;;;5113419;28;20058;-71
2023/05/12 10:54:24;;;;;;;8.82;2.42;;;16.50;99.90;;;;;;5113463;28;20102;-71
2023/05/12 10:56:51;;;;;;;12.48;2.50;;;16.50;99.90;;;;;;5113593;28;20516;-71
2023/05/12 10:59:26;;;;;;;13.88;2.63;;;16.50;99.90;;;;;;5113523;28;20495;-71
2023/05/12 11:02:17;;;;;;;13.40;2.97;;;16.60;99.90;;;;;;5113735;28;20028;-71
2023/05/12 11:04:52;;;;;;;9.50;2.70;;;16.60;99.90;;;;;;5112685;28;20027;-72
2023/05/12 11:07:25;;;;;;;12.60;2.85;;;16.60;99.90;;;;;;5113594;28;20036;-71
2023/05/12 11:09:51;;;;;;;11.70;2.70;;;16.50;99.90;;;;;;5113285;28;20489;-71
2023/05/12 11:12:17;;;;;;;15.30;3.50;;;16.60;99.90;;;;;;5113066;28;20074;-71
2023/05/12 11:14:44;;;;;;;16.92;3.55;;;16.40;99.90;;;;;;5113665;28;20094;-71
2023/05/12 11:17:10;;;;;;;18.23;3.10;;;16.30;99.90;;;;;;5113091;28;20556;-72
2023/05/12 11:19:36;;;;;;;13.25;2.35;;;16.30;99.90;;;;;;5113000;28;20028;-71
2023/05/12 11:22:08;;;;;;;10.32;2.42;;;16.20;99.90;;;;;;5113235;28;20051;-71
2023/05/12 11:24:35;;;;;;;10.85;2.80;;;16.00;99.90;;;;;;5113046;28;20434;-71
2023/05/12 11:27:03;;;;;;;13.35;2.83;;;15.90;99.90;;;;;;5112991;28;20415;-71
2023/05/12 11:29:29;;;;;;;7.68;2.50;;;15.90;99.90;;;;;;5112684;28;20110;-71
2023/05/12 11:31:55;;;;;;;8.43;2.47;;;15.90;99.90;;;;;;5113302;28;20110;-70
2023/05/12 11:34:25;;;;;;;9.60;2.55;;;15.90;99.90;;;;;;5112464;28;20016;-71
2023/05/12 11:36:53;;;;;;;9.90;2.30;;;16.10;99.90;;;;;;5112763;28;20431;-71
2023/05/12 11:39:21;;;;;;;9.70;2.38;;;16.30;99.90;;;;;;5112750;28;20023;-71
2023/05/12 11:41:48;;;;;;;9.48;2.63;;;16.60;99.90;;;;;;5112698;28;20084;-71
2023/05/12 11:44:20;;;;;;;9.43;2.67;;;16.70;99.90;;;;;;5112205;28;20404;-71
2023/05/12 11:47:02;;;;;;;8.75;2.60;;;16.90;99.90;;;;;;5112350;28;20031;-71
2023/05/12 11:49:29;;;;;;;10.63;2.75;;;17.10;99.90;;;;;;5112613;28;20062;-71
2023/05/12 11:52:01;;;;;;;8.98;2.20;;;17.20;99.90;;;;;;5112849;28;20024;-72
2023/05/12 11:54:30;;;;;;;10.05;2.17;;;17.30;99.90;;;;;;5112489;28;20071;-71
2023/05/12 11:56:56;;;;;;;7.63;2.38;;;17.40;99.90;;;;;;5112451;28;20030;-71
2023/05/12 11:59:34;;;;;;;11.65;2.10;;;17.40;99.90;;;;;;5112487;28;20055;-71
2023/05/12 12:02:02;;;;;;;7.78;2.47;;;17.50;99.90;;;;;;5112400;28;20476;-71
2023/05/12 12:04:39;;;;;;;9.75;2.80;;;17.50;99.90;;;;;;5112432;28;20081;-71
2023/05/12 12:07:05;;;;;;;8.90;1.98;;;17.50;99.90;;;;;;5112142;28;20036;-71
2023/05/12 12:09:36;;;;;;;8.35;2.08;;;17.60;99.90;;;;;;5112131;28;20073;-71
2023/05/12 12:12:03;;;;;;;8.75;2.05;;;17.60;99.90;;;;;;5112050;28;20062;-71
2023/05/12 12:14:30;;;;;;;6.80;2.08;;;17.70;99.90;;;;;;5112112;28;20072;-71
2023/05/12 12:16:56;;;;;;;8.10;2.08;;;17.70;99.90;;;;;;5111957;28;20028;-71
2023/05/12 12:19:22;;;;;;;9.98;2.40;;;17.80;99.90;;;;;;5112171;28;20028;-71
2023/05/12 12:21:48;;;;;;;9.13;2.13;;;17.80;99.90;;;;;;5112016;28;20603;-71
2023/05/12 12:24:14;;;;;;;5.78;2.22;;;17.60;99.90;;;;;;5093703;28;20051;-71
2023/05/12 12:26:39;;;;;;;7.13;2.13;;;17.80;99.90;;;;;;5111960;28;20031;-71
2023/05/12 12:29:05;;;;;;;5.10;1.70;;;18.00;99.90;;;;;;5111980;28;20031;-71
2023/05/12 12:31:33;;;;;;;5.53;2.00;;;18.10;99.90;;;;;;5112017;28;20448;-71
2023/05/12 12:33:58;;;;;;;8.90;2.42;;;18.00;99.90;;;;;;5112011;28;20027;-71
2023/05/12 12:36:24;;;;;;;6.53;1.80;;;17.90;99.90;;;;;;5111867;28;20038;-71
2023/05/12 12:38:50;;;;;;;6.93;2.30;;;17.90;99.90;;;;;;5111743;28;20039;-71
2023/05/12 12:41:15;;;;;;;6.22;1.80;;;17.90;99.90;;;;;;5111816;28;20043;-71
2023/05/12 12:43:41;;;;;;;7.97;2.33;;;18.00;99.90;;;;;;5112161;28;20024;-71